ESDF/RNB METAR and TAF weather

Enter ICAO airport designator
Station Type Date Time Source
ESDF METAR 2020/11/28 19:50 UTC NOAA

ESDF 281950Z AUTO 35005KT 9999 FEW022/// OVC031/// 01/01 Q1028


Station Type Date Time Source
ESDF Decoded METAR 2020/11/28 19:50 UTC NOAA

Ronneby, Sweden (ESDF) 56-16N 015-17E 74M
Nov 28, 2020 - 02:50 PM EST / 2020.11.28 1950 UTC
Wind: from the N (350 degrees) at 6 MPH (5 KT):0
Visibility: greater than 7 mile(s):0
Sky conditions: overcast
Temperature: 33 F (1 C)
Windchill: 26 F (-3 C):1
Dew Point: 33 F (1 C)
Relative Humidity: 100%
Pressure (altimeter): 30.36 in. Hg (1028 hPa)
ob: ESDF 281950Z AUTO 35005KT 9999 FEW022/// OVC031/// 01/01 Q1028
cycle: 20

Station Type Date Time Source
ESDF TAF 2018/05/29 12:27 UTC NOAA

TAF TAF ESDF 291425Z 2912/2924 07008KT CAVOK
RMK MIL

Example: see airport list